sensor_id;sensor_type;location;lat;lon;timestamp;pressure;altitude;pressure_sealevel;temperature;humidity
5298;BME280;14738;42.668;23.250;2023-04-05T00:00:09;48584.84;;;-141.90;100.00
5298;BME280;14738;42.668;23.250;2023-04-05T00:02:36;48586.84;;;-141.90;100.00
5298;BME280;14738;42.668;23.250;2023-04-05T00:05:05;48596.78;;;-141.90;100.00
5298;BME280;14738;42.668;23.250;2023-04-05T00:07:31;48588.84;;;-141.90;100.00
5298;BME280;14738;42.668;23.250;2023-04-05T00:09:59;48561.03;;;-141.90;100.00
5298;BME280;14738;42.668;23.250;2023-04-05T00:12:24;48612.66;;;-141.90;100.00
5298;BME280;14738;42.668;23.250;2023-04-05T00:14:50;48588.84;;;-141.90;100.00
5298;BME280;14738;42.668;23.250;2023-04-05T00:17:16;48624.56;;;-141.90;100.00
5298;BME280;14738;42.668;23.250;2023-04-05T00:19:42;48604.72;;;-141.90;100.00
5298;BME280;14738;42.668;23.250;2023-04-05T00:22:09;48586.84;;;-141.90;100.00
5298;BME280;14738;42.668;23.250;2023-04-05T00:24:35;48572.94;;;-141.90;100.00
5298;BME280;14738;42.668;23.250;2023-04-05T00:27:06;48592.81;;;-141.90;100.00
5298;BME280;14738;42.668;23.250;2023-04-05T00:29:31;48588.84;;;-141.90;100.00
5298;BME280;14738;42.668;23.250;2023-04-05T00:31:57;48576.91;;;-141.90;100.00
5298;BME280;14738;42.668;23.250;2023-04-05T00:34:22;48576.91;;;-141.90;100.00
5298;BME280;14738;42.668;23.250;2023-04-05T00:36:48;48584.84;;;-141.90;100.00
5298;BME280;14738;42.668;23.250;2023-04-05T00:39:13;48600.75;;;-141.90;100.00
5298;BME280;14738;42.668;23.250;2023-04-05T00:41:39;48588.84;;;-141.90;100.00
5298;BME280;14738;42.668;23.250;2023-04-05T00:44:05;48588.84;;;-141.90;100.00
5298;BME280;14738;42.668;23.250;2023-04-05T00:46:35;48600.75;;;-141.90;100.00
5298;BME280;14738;42.668;23.250;2023-04-05T00:49:02;48630.53;;;-141.90;100.00
5298;BME280;14738;42.668;23.250;2023-04-05T00:51:30;48606.69;;;-141.90;100.00
5298;BME280;14738;42.668;23.250;2023-04-05T00:53:58;48608.69;;;-141.90;100.00
5298;BME280;14738;42.668;23.250;2023-04-05T00:56:24;48626.56;;;-141.90;100.00
5298;BME280;14738;42.668;23.250;2023-04-05T00:58:50;48618.59;;;-141.90;100.00
5298;BME280;14738;42.668;23.250;2023-04-05T01:01:18;48608.69;;;-141.90;100.00
5298;BME280;14738;42.668;23.250;2023-04-05T01:04:05;48624.56;;;-141.90;100.00
5298;BME280;14738;42.668;23.250;2023-04-05T01:12:17;48608.69;;;-141.90;100.00
5298;BME280;14738;42.668;23.250;2023-04-05T01:14:49;48594.78;;;-141.90;100.00
5298;BME280;14738;42.668;23.250;2023-04-05T01:17:22;48616.63;;;-141.90;100.00
5298;BME280;14738;42.668;23.250;2023-04-05T01:19:57;48596.78;;;-141.90;100.00
5298;BME280;14738;42.668;23.250;2023-04-05T01:25:33;48570.97;;;-141.90;100.00
5298;BME280;14738;42.668;23.250;2023-04-05T01:31:49;48612.66;;;-141.90;100.00
5298;BME280;14738;42.668;23.250;2023-04-05T01:34:10;48632.50;;;-141.90;100.00
5298;BME280;14738;42.668;23.250;2023-04-05T01:36:49;48604.72;;;-141.90;100.00
5298;BME280;14738;42.668;23.250;2023-04-05T01:39:16;48592.81;;;-141.90;100.00
5298;BME280;14738;42.668;23.250;2023-04-05T01:41:44;48588.84;;;-141.90;100.00
5298;BME280;14738;42.668;23.250;2023-04-05T01:44:09;48578.91;;;-141.90;100.00
5298;BME280;14738;42.668;23.250;2023-04-05T01:46:35;48596.78;;;-141.90;100.00
5298;BME280;14738;42.668;23.250;2023-04-05T01:49:01;48620.59;;;-141.90;100.00
5298;BME280;14738;42.668;23.250;2023-04-05T01:51:26;48610.66;;;-141.90;100.00
5298;BME280;14738;42.668;23.250;2023-04-05T01:53:52;48588.84;;;-141.90;100.00
5298;BME280;14738;42.668;23.250;2023-04-05T01:56:17;48576.91;;;-141.90;100.00
5298;BME280;14738;42.668;23.250;2023-04-05T01:58:42;48541.19;;;-141.90;100.00
5298;BME280;14738;42.668;23.250;2023-04-05T02:01:08;48598.75;;;-141.90;100.00
5298;BME280;14738;42.668;23.250;2023-04-05T02:03:33;48600.75;;;-141.90;100.00
5298;BME280;14738;42.668;23.250;2023-04-05T02:06:00;48588.84;;;-141.90;100.00
5298;BME280;14738;42.668;23.250;2023-04-05T02:08:25;48586.84;;;-141.90;100.00
5298;BME280;14738;42.668;23.250;2023-04-05T02:10:53;48602.72;;;-141.90;100.00
5298;BME280;14738;42.668;23.250;2023-04-05T02:13:19;48596.78;;;-141.90;100.00
5298;BME280;14738;42.668;23.250;2023-04-05T02:15:49;48616.63;;;-141.90;100.00
5298;BME280;14738;42.668;23.250;2023-04-05T02:18:16;48604.72;;;-141.90;100.00
5298;BME280;14738;42.668;23.250;2023-04-05T02:20:48;48612.66;;;-141.90;100.00
5298;BME280;14738;42.668;23.250;2023-04-05T02:23:15;48584.84;;;-141.90;100.00
5298;BME280;14738;42.668;23.250;2023-04-05T02:25:41;48586.84;;;-141.90;100.00
5298;BME280;14738;42.668;23.250;2023-04-05T02:28:06;48608.69;;;-141.90;100.00
5298;BME280;14738;42.668;23.250;2023-04-05T02:30:31;48602.72;;;-141.90;100.00
5298;BME280;14738;42.668;23.250;2023-04-05T02:32:57;48624.56;;;-141.90;100.00
5298;BME280;14738;42.668;23.250;2023-04-05T02:35:22;48572.94;;;-141.90;100.00
5298;BME280;14738;42.668;23.250;2023-04-05T02:37:48;48588.84;;;-141.90;100.00
5298;BME280;14738;42.668;23.250;2023-04-05T02:40:14;48616.63;;;-141.90;100.00
5298;BME280;14738;42.668;23.250;2023-04-05T02:42:40;48610.66;;;-141.90;100.00
5298;BME280;14738;42.668;23.250;2023-04-05T02:45:06;48594.78;;;-141.90;100.00
5298;BME280;14738;42.668;23.250;2023-04-05T02:47:33;48586.84;;;-141.90;100.00
5298;BME280;14738;42.668;23.250;2023-04-05T02:49:58;48592.81;;;-141.90;100.00
5298;BME280;14738;42.668;23.250;2023-04-05T02:52:24;48614.63;;;-141.90;100.00
5298;BME280;14738;42.668;23.250;2023-04-05T02:54:50;48576.91;;;-141.90;100.00
5298;BME280;14738;42.668;23.250;2023-04-05T02:57:17;48600.75;;;-141.90;100.00
5298;BME280;14738;42.668;23.250;2023-04-05T02:59:42;48612.66;;;-141.90;100.00
5298;BME280;14738;42.668;23.250;2023-04-05T03:02:09;48590.81;;;-141.90;100.00
5298;BME280;14738;42.668;23.250;2023-04-05T03:04:35;48600.75;;;-141.90;100.00
5298;BME280;14738;42.668;23.250;2023-04-05T03:07:02;48598.75;;;-141.90;100.00
5298;BME280;14738;42.668;23.250;2023-04-05T03:09:29;48588.84;;;-141.90;100.00
5298;BME280;14738;42.668;23.250;2023-04-05T03:12:01;48604.72;;;-141.90;100.00
5298;BME280;14738;42.668;23.250;2023-04-05T03:14:31;48592.81;;;-141.90;100.00
5298;BME280;14738;42.668;23.250;2023-04-05T03:16:57;48608.69;;;-141.90;100.00
5298;BME280;14738;42.668;23.250;2023-04-05T03:19:24;48620.59;;;-141.90;100.00
5298;BME280;14738;42.668;23.250;2023-04-05T03:21:51;48584.84;;;-141.90;100.00
5298;BME280;14738;42.668;23.250;2023-04-05T03:24:16;48568.97;;;-141.90;100.00
5298;BME280;14738;42.668;23.250;2023-04-05T03:26:43;48588.84;;;-141.90;100.00
5298;BME280;14738;42.668;23.250;2023-04-05T03:29:09;48588.84;;;-141.90;100.00
5298;BME280;14738;42.668;23.250;2023-04-05T03:31:34;48568.97;;;-141.90;100.00
5298;BME280;14738;42.668;23.250;2023-04-05T03:34:00;48584.84;;;-141.90;100.00
5298;BME280;14738;42.668;23.250;2023-04-05T03:36:25;48636.47;;;-141.90;100.00
5298;BME280;14738;42.668;23.250;2023-04-05T03:38:55;48588.84;;;-141.90;100.00
5298;BME280;14738;42.668;23.250;2023-04-05T03:41:20;48596.78;;;-141.90;100.00
5298;BME280;14738;42.668;23.250;2023-04-05T03:43:47;48576.91;;;-141.90;100.00
5298;BME280;14738;42.668;23.250;2023-04-05T03:46:13;48563.03;;;-141.90;100.00
5298;BME280;14738;42.668;23.250;2023-04-05T03:48:38;48612.66;;;-141.90;100.00
5298;BME280;14738;42.668;23.250;2023-04-05T03:51:04;48612.66;;;-141.90;100.00
5298;BME280;14738;42.668;23.250;2023-04-05T03:53:30;48588.84;;;-141.90;100.00
5298;BME280;14738;42.668;23.250;2023-04-05T03:55:56;48592.81;;;-141.90;100.00
5298;BME280;14738;42.668;23.250;2023-04-05T03:58:21;48563.03;;;-141.90;100.00
5298;BME280;14738;42.668;23.250;2023-04-05T04:00:47;48632.50;;;-141.90;100.00
5298;BME280;14738;42.668;23.250;2023-04-05T04:03:13;48592.81;;;-141.90;100.00
5298;BME280;14738;42.668;23.250;2023-04-05T04:05:39;48592.81;;;-141.90;100.00
5298;BME280;14738;42.668;23.250;2023-04-05T04:08:04;48582.88;;;-141.90;100.00
5298;BME280;14738;42.668;23.250;2023-04-05T04:10:33;48584.84;;;-141.90;100.00
5298;BME280;14738;42.668;23.250;2023-04-05T04:12:59;48586.84;;;-141.90;100.00
5298;BME280;14738;42.668;23.250;2023-04-05T04:15:25;48598.75;;;-141.90;100.00
5298;BME280;14738;42.668;23.250;2023-04-05T04:17:50;48596.78;;;-141.90;100.00
5298;BME280;14738;42.668;23.250;2023-04-05T04:20:16;48582.88;;;-141.90;100.00
5298;BME280;14738;42.668;23.250;2023-04-05T04:22:42;48596.78;;;-141.90;100.00
5298;BME280;14738;42.668;23.250;2023-04-05T04:25:08;48608.69;;;-141.90;100.00
5298;BME280;14738;42.668;23.250;2023-04-05T04:27:37;48592.81;;;-141.90;100.00
5298;BME280;14738;42.668;23.250;2023-04-05T04:30:05;48588.84;;;-141.90;100.00
5298;BME280;14738;42.668;23.250;2023-04-05T04:32:36;48584.84;;;-141.90;100.00
5298;BME280;14738;42.668;23.250;2023-04-05T04:35:25;48598.75;;;-141.90;100.00
5298;BME280;14738;42.668;23.250;2023-04-05T04:37:57;48616.63;;;-141.90;100.00
5298;BME280;14738;42.668;23.250;2023-04-05T04:40:36;48628.53;;;-141.90;100.00
5298;BME280;14738;42.668;23.250;2023-04-05T04:43:12;48596.78;;;-141.90;100.00
5298;BME280;14738;42.668;23.250;2023-04-05T04:45:51;48584.84;;;-141.90;100.00
5298;BME280;14738;42.668;23.250;2023-04-05T04:48:19;48598.75;;;-141.90;100.00
5298;BME280;14738;42.668;23.250;2023-04-05T04:50:46;48588.84;;;-141.90;100.00
5298;BME280;14738;42.668;23.250;2023-04-05T04:53:12;48596.78;;;-141.90;100.00
5298;BME280;14738;42.668;23.250;2023-04-05T04:55:41;48592.81;;;-141.90;100.00
5298;BME280;14738;42.668;23.250;2023-04-05T04:58:08;48565.00;;;-141.90;100.00
5298;BME280;14738;42.668;23.250;2023-04-05T05:00:40;48588.84;;;-141.90;100.00
5298;BME280;14738;42.668;23.250;2023-04-05T05:03:09;48582.88;;;-141.90;100.00
5298;BME280;14738;42.668;23.250;2023-04-05T05:05:45;48557.06;;;-141.90;100.00
5298;BME280;14738;42.668;23.250;2023-04-05T05:08:12;48594.78;;;-141.90;100.00
5298;BME280;14738;42.668;23.250;2023-04-05T05:10:37;48612.66;;;-141.90;100.00
5298;BME280;14738;42.668;23.250;2023-04-05T05:13:03;48592.81;;;-141.90;100.00
5298;BME280;14738;42.668;23.250;2023-04-05T05:15:28;48580.88;;;-141.90;100.00
5298;BME280;14738;42.668;23.250;2023-04-05T05:17:54;48549.13;;;-141.90;100.00
5298;BME280;14738;42.668;23.250;2023-04-05T05:20:20;48592.81;;;-141.90;100.00
5298;BME280;14738;42.668;23.250;2023-04-05T05:22:46;48572.94;;;-141.90;100.00
5298;BME280;14738;42.668;23.250;2023-04-05T05:25:12;48582.88;;;-141.90;100.00
5298;BME280;14738;42.668;23.250;2023-04-05T05:27:38;48584.84;;;-141.90;100.00
5298;BME280;14738;42.668;23.250;2023-04-05T05:30:04;48561.03;;;-141.90;100.00
5298;BME280;14738;42.668;23.250;2023-04-05T05:32:29;48570.97;;;-141.90;100.00
5298;BME280;14738;42.668;23.250;2023-04-05T05:34:55;48588.84;;;-141.90;100.00
5298;BME280;14738;42.668;23.250;2023-04-05T05:37:21;48586.84;;;-141.90;100.00
5298;BME280;14738;42.668;23.250;2023-04-05T05:39:53;48602.72;;;-141.90;100.00
5298;BME280;14738;42.668;23.250;2023-04-05T05:42:19;48604.72;;;-141.90;100.00
5298;BME280;14738;42.668;23.250;2023-04-05T05:44:45;48559.06;;;-141.90;100.00
5298;BME280;14738;42.668;23.250;2023-04-05T05:47:10;48576.91;;;-141.90;100.00
5298;BME280;14738;42.668;23.250;2023-04-05T05:49:36;48586.84;;;-141.90;100.00
5298;BME280;14738;42.668;23.250;2023-04-05T05:52:02;48596.78;;;-141.90;100.00
5298;BME280;14738;42.668;23.250;2023-04-05T05:54:28;48561.03;;;-141.90;100.00
5298;BME280;14738;42.668;23.250;2023-04-05T05:56:53;48572.94;;;-141.90;100.00
5298;BME280;14738;42.668;23.250;2023-04-05T05:59:19;48561.03;;;-141.90;100.00
5298;BME280;14738;42.668;23.250;2023-04-05T06:01:44;48549.13;;;-141.90;100.00
5298;BME280;14738;42.668;23.250;2023-04-05T06:04:11;48561.03;;;-141.90;100.00
5298;BME280;14738;42.668;23.250;2023-04-05T06:06:37;48563.03;;;-141.90;100.00
5298;BME280;14738;42.668;23.250;2023-04-05T06:09:02;48543.16;;;-141.90;100.00
5298;BME280;14738;42.668;23.250;2023-04-05T06:11:28;48541.19;;;-141.90;100.00
5298;BME280;14738;42.668;23.250;2023-04-05T06:13:53;48555.09;;;-141.90;100.00
5298;BME280;14738;42.668;23.250;2023-04-05T06:16:22;48551.09;;;-141.90;100.00
5298;BME280;14738;42.668;23.250;2023-04-05T06:18:47;48551.09;;;-141.90;100.00
5298;BME280;14738;42.668;23.250;2023-04-05T06:21:13;48574.94;;;-141.90;100.00
5298;BME280;14738;42.668;23.250;2023-04-05T06:23:40;48515.38;;;-141.90;100.00
5298;BME280;14738;42.668;23.250;2023-04-05T06:26:07;48537.22;;;-141.90;100.00
5298;BME280;14738;42.668;23.250;2023-04-05T06:28:32;48535.22;;;-141.90;100.00
5298;BME280;14738;42.668;23.250;2023-04-05T06:30:58;48557.06;;;-141.90;100.00
5298;BME280;14738;42.668;23.250;2023-04-05T06:33:24;48549.13;;;-141.90;100.00
5298;BME280;14738;42.668;23.250;2023-04-05T06:35:50;48543.16;;;-141.90;100.00
5298;BME280;14738;42.668;23.250;2023-04-05T06:38:15;48578.91;;;-141.90;100.00
5298;BME280;14738;42.668;23.250;2023-04-05T06:40:41;48557.06;;;-141.90;100.00
5298;BME280;14738;42.668;23.250;2023-04-05T06:43:07;48561.03;;;-141.90;100.00
5298;BME280;14738;42.668;23.250;2023-04-05T06:45:32;48515.38;;;-141.90;100.00
5298;BME280;14738;42.668;23.250;2023-04-05T06:47:57;48537.22;;;-141.90;100.00
5298;BME280;14738;42.668;23.250;2023-04-05T06:50:23;48525.31;;;-141.90;100.00
5298;BME280;14738;42.668;23.250;2023-04-05T06:52:48;48519.34;;;-141.90;100.00
5298;BME280;14738;42.668;23.250;2023-04-05T06:55:14;48541.19;;;-141.90;100.00
5298;BME280;14738;42.668;23.250;2023-04-05T06:57:39;48545.16;;;-141.90;100.00
5298;BME280;14738;42.668;23.250;2023-04-05T07:00:05;48507.44;;;-141.90;100.00
5298;BME280;14738;42.668;23.250;2023-04-05T07:02:37;48529.28;;;-141.90;100.00
5298;BME280;14738;42.668;23.250;2023-04-05T07:05:03;48521.34;;;-141.90;100.00
5298;BME280;14738;42.668;23.250;2023-04-05T07:07:32;48525.31;;;-141.90;100.00
5298;BME280;14738;42.668;23.250;2023-04-05T07:09:58;48533.25;;;-141.90;100.00
5298;BME280;14738;42.668;23.250;2023-04-05T07:12:23;48537.22;;;-141.90;100.00
5298;BME280;14738;42.668;23.250;2023-04-05T07:14:49;48527.28;;;-141.90;100.00
5298;BME280;14738;42.668;23.250;2023-04-05T07:17:15;48503.47;;;-141.90;100.00
5298;BME280;14738;42.668;23.250;2023-04-05T07:19:40;48525.31;;;-141.90;100.00
5298;BME280;14738;42.668;23.250;2023-04-05T07:22:05;48513.38;;;-141.90;100.00
5298;BME280;14738;42.668;23.250;2023-04-05T07:24:31;48533.25;;;-141.90;100.00
5298;BME280;14738;42.668;23.250;2023-04-05T07:26:56;48545.16;;;-141.90;100.00
5298;BME280;14738;42.668;23.250;2023-04-05T07:29:22;48497.50;;;-141.90;100.00
5298;BME280;14738;42.668;23.250;2023-04-05T07:31:48;48545.16;;;-141.90;100.00
5298;BME280;14738;42.668;23.250;2023-04-05T07:34:13;48539.19;;;-141.90;100.00
5298;BME280;14738;42.668;23.250;2023-04-05T07:36:39;48519.34;;;-141.90;100.00
5298;BME280;14738;42.668;23.250;2023-04-05T07:39:05;48529.28;;;-141.90;100.00
5298;BME280;14738;42.668;23.250;2023-04-05T07:41:30;48547.13;;;-141.90;100.00
5298;BME280;14738;42.668;23.250;2023-04-05T07:43:59;48535.22;;;-141.90;100.00
5298;BME280;14738;42.668;23.250;2023-04-05T07:46:25;48574.94;;;-141.90;100.00
5298;BME280;14738;42.668;23.250;2023-04-05T07:48:52;48509.41;;;-141.90;100.00
5298;BME280;14738;42.668;23.250;2023-04-05T07:51:17;48535.22;;;-141.90;100.00
5298;BME280;14738;42.668;23.250;2023-04-05T07:53:43;48525.31;;;-141.90;100.00
5298;BME280;14738;42.668;23.250;2023-04-05T07:56:09;48477.66;;;-141.90;100.00
5298;BME280;14738;42.668;23.250;2023-04-05T07:58:37;48549.13;;;-141.90;100.00
5298;BME280;14738;42.668;23.250;2023-04-05T08:01:06;48533.25;;;-141.90;100.00
5298;BME280;14738;42.668;23.250;2023-04-05T08:03:33;48541.19;;;-141.90;100.00
5298;BME280;14738;42.668;23.250;2023-04-05T08:06:08;48525.31;;;-141.90;100.00
5298;BME280;14738;42.668;23.250;2023-04-05T08:08:35;48555.09;;;-141.90;100.00
5298;BME280;14738;42.668;23.250;2023-04-05T08:11:03;48541.19;;;-141.90;100.00
5298;BME280;14738;42.668;23.250;2023-04-05T08:13:29;48537.22;;;-141.90;100.00
5298;BME280;14738;42.668;23.250;2023-04-05T08:15:55;48515.38;;;-141.90;100.00
5298;BME280;14738;42.668;23.250;2023-04-05T08:18:21;48517.34;;;-141.90;100.00
5298;BME280;14738;42.668;23.250;2023-04-05T08:20:52;48545.16;;;-141.90;100.00
5298;BME280;14738;42.668;23.250;2023-04-05T08:23:17;48565.00;;;-141.90;100.00
5298;BME280;14738;42.668;23.250;2023-04-05T08:25:43;48576.91;;;-141.90;100.00
5298;BME280;14738;42.668;23.250;2023-04-05T08:28:09;48545.16;;;-141.90;100.00
5298;BME280;14738;42.668;23.250;2023-04-05T08:30:34;48537.22;;;-141.90;100.00
5298;BME280;14738;42.668;23.250;2023-04-05T08:33:00;48551.09;;;-141.90;100.00
5298;BME280;14738;42.668;23.250;2023-04-05T08:35:26;48551.09;;;-141.90;100.00
5298;BME280;14738;42.668;23.250;2023-04-05T08:37:51;48537.22;;;-141.90;100.00
5298;BME280;14738;42.668;23.250;2023-04-05T08:40:17;48547.13;;;-141.90;100.00
5298;BME280;14738;42.668;23.250;2023-04-05T08:42:56;48549.13;;;-141.90;100.00
5298;BME280;14738;42.668;23.250;2023-04-05T08:45:23;48565.00;;;-141.90;100.00
5298;BME280;14738;42.668;23.250;2023-04-05T08:47:51;48545.16;;;-141.90;100.00
5298;BME280;14738;42.668;23.250;2023-04-05T08:50:18;48549.13;;;-141.90;100.00
5298;BME280;14738;42.668;23.250;2023-04-05T08:52:45;48531.25;;;-141.90;100.00
5298;BME280;14738;42.668;23.250;2023-04-05T08:55:14;48568.97;;;-141.90;100.00
5298;BME280;14738;42.668;23.250;2023-04-05T08:57:42;48527.28;;;-141.90;100.00
5298;BME280;14738;42.668;23.250;2023-04-05T09:00:08;48539.19;;;-141.90;100.00
5298;BME280;14738;42.668;23.250;2023-04-05T09:02:36;48533.25;;;-141.90;100.00
5298;BME280;14738;42.668;23.250;2023-04-05T09:05:03;48533.25;;;-141.90;100.00
5298;BME280;14738;42.668;23.250;2023-04-05T09:07:34;48469.72;;;-141.90;100.00
5298;BME280;14738;42.668;23.250;2023-04-05T09:10:00;48539.19;;;-141.90;100.00
5298;BME280;14738;42.668;23.250;2023-04-05T09:12:27;48527.28;;;-141.90;100.00
5298;BME280;14738;42.668;23.250;2023-04-05T09:14:54;48525.31;;;-141.90;100.00
5298;BME280;14738;42.668;23.250;2023-04-05T09:17:20;48503.47;;;-141.90;100.00
5298;BME280;14738;42.668;23.250;2023-04-05T09:19:47;48489.56;;;-141.90;100.00
5298;BME280;14738;42.668;23.250;2023-04-05T09:22:15;48513.38;;;-141.90;100.00
5298;BME280;14738;42.668;23.250;2023-04-05T09:24:44;48523.31;;;-141.90;100.00
5298;BME280;14738;42.668;23.250;2023-04-05T09:27:14;48545.16;;;-141.90;100.00
5298;BME280;14738;42.668;23.250;2023-04-05T09:29:42;48557.06;;;-141.90;100.00
5298;BME280;14738;42.668;23.250;2023-04-05T09:32:09;48537.22;;;-141.90;100.00
5298;BME280;14738;42.668;23.250;2023-04-05T09:34:35;48553.09;;;-141.90;100.00
5298;BME280;14738;42.668;23.250;2023-04-05T09:37:14;48543.16;;;-141.90;100.00
5298;BME280;14738;42.668;23.250;2023-04-05T09:39:41;48541.19;;;-141.90;100.00
5298;BME280;14738;42.668;23.250;2023-04-05T09:45:08;48543.16;;;-141.90;100.00
5298;BME280;14738;42.668;23.250;2023-04-05T09:47:34;48541.19;;;-141.90;100.00
5298;BME280;14738;42.668;23.250;2023-04-05T09:50:18;48533.25;;;-141.90;100.00
5298;BME280;14738;42.668;23.250;2023-04-05T09:52:44;48535.22;;;-141.90;100.00
5298;BME280;14738;42.668;23.250;2023-04-05T09:55:10;48537.22;;;-141.90;100.00
5298;BME280;14738;42.668;23.250;2023-04-05T09:57:38;48553.09;;;-141.90;100.00
5298;BME280;14738;42.668;23.250;2023-04-05T10:00:05;48551.09;;;-141.90;100.00
5298;BME280;14738;42.668;23.250;2023-04-05T10:02:38;48535.22;;;-141.90;100.00
5298;BME280;14738;42.668;23.250;2023-04-05T10:05:10;48561.03;;;-141.90;46.28
5298;BME280;14738;42.668;23.250;2023-04-05T10:07:38;48543.16;;;-141.90;45.07
5298;BME280;14738;42.668;23.250;2023-04-05T10:10:05;48572.94;;;-141.90;45.21
5298;BME280;14738;42.668;23.250;2023-04-05T10:12:31;48513.38;;;-141.90;44.66
5298;BME280;14738;42.668;23.250;2023-04-05T10:14:57;48489.56;;;-141.90;44.46
5298;BME280;14738;42.668;23.250;2023-04-05T10:17:27;48503.47;;;-141.90;44.81
5298;BME280;14738;42.668;23.250;2023-04-05T10:20:13;48545.16;;;-141.90;45.06
5298;BME280;14738;42.668;23.250;2023-04-05T10:23:11;48537.22;;;-141.90;44.91
5298;BME280;14738;42.668;23.250;2023-04-05T10:25:59;48568.97;;;-141.90;44.94
5298;BME280;14738;42.668;23.250;2023-04-05T10:28:33;48529.28;;;-141.90;45.14
5298;BME280;14738;42.668;23.250;2023-04-05T10:33:43;48563.03;;;-141.90;45.75
5298;BME280;14738;42.668;23.250;2023-04-05T10:36:49;48563.03;;;-141.90;45.68
5298;BME280;14738;42.668;23.250;2023-04-05T10:41:54;48529.28;;;-141.90;44.53
5298;BME280;14738;42.668;23.250;2023-04-05T10:44:30;48517.34;;;-141.90;44.75
5298;BME280;14738;42.668;23.250;2023-04-05T10:46:59;48545.16;;;-141.90;45.44
5298;BME280;14738;42.668;23.250;2023-04-05T10:49:31;48539.19;;;-141.90;44.41
5298;BME280;14738;42.668;23.250;2023-04-05T10:51:59;48549.13;;;-141.90;43.33
5298;BME280;14738;42.668;23.250;2023-04-05T10:54:25;48515.38;;;-141.90;43.84
5298;BME280;14738;42.668;23.250;2023-04-05T10:56:51;48533.25;;;-141.90;45.34
5298;BME280;14738;42.668;23.250;2023-04-05T10:59:17;48511.41;;;-141.90;44.77
5298;BME280;14738;42.668;23.250;2023-04-05T11:01:44;48545.16;;;-141.90;45.08
5298;BME280;14738;42.668;23.250;2023-04-05T11:04:14;48525.31;;;-141.90;44.75
5298;BME280;14738;42.668;23.250;2023-04-05T11:06:40;48473.69;;;-141.90;44.48
5298;BME280;14738;42.668;23.250;2023-04-05T11:09:14;48565.00;;;-141.90;44.54
5298;BME280;14738;42.668;23.250;2023-04-05T11:11:42;48547.13;;;-141.90;44.71
5298;BME280;14738;42.668;23.250;2023-04-05T11:16:58;48531.25;;;-141.90;44.56
5298;BME280;14738;42.668;23.250;2023-04-05T11:22:08;48521.34;;;-141.90;44.54
5298;BME280;14738;42.668;23.250;2023-04-05T11:27:15;48529.28;;;-141.90;44.28
5298;BME280;14738;42.668;23.250;2023-04-05T11:29:47;48527.28;;;-141.90;43.42
5298;BME280;14738;42.668;23.250;2023-04-05T11:32:16;48497.50;;;-141.90;42.48
5298;BME280;14738;42.668;23.250;2023-04-05T11:34:43;48537.22;;;-141.90;44.49
5298;BME280;14738;42.668;23.250;2023-04-05T11:37:08;48525.31;;;-141.90;44.99
5298;BME280;14738;42.668;23.250;2023-04-05T11:39:34;48537.22;;;-141.90;44.36
5298;BME280;14738;42.668;23.250;2023-04-05T11:42:03;48511.41;;;-141.90;44.28
5298;BME280;14738;42.668;23.250;2023-04-05T11:44:47;48517.34;;;-141.90;44.27
5298;BME280;14738;42.668;23.250;2023-04-05T11:47:15;48545.16;;;-141.90;44.41
5298;BME280;14738;42.668;23.250;2023-04-05T11:49:48;48525.31;;;-141.90;44.24
5298;BME280;14738;42.668;23.250;2023-04-05T11:52:16;48501.47;;;-141.90;43.87
5298;BME280;14738;42.668;23.250;2023-04-05T11:54:42;48519.34;;;-141.90;43.82
5298;BME280;14738;42.668;23.250;2023-04-05T11:57:19;48525.31;;;-141.90;44.14
5298;BME280;14738;42.668;23.250;2023-04-05T11:59:51;48517.34;;;-141.90;44.04
5298;BME280;14738;42.668;23.250;2023-04-05T12:02:18;48519.34;;;-141.90;43.25
5298;BME280;14738;42.668;23.250;2023-04-05T12:04:44;48513.38;;;-141.90;44.57
5298;BME280;14738;42.668;23.250;2023-04-05T12:07:16;48529.28;;;-141.90;44.21
5298;BME280;14738;42.668;23.250;2023-04-05T12:12:27;48515.38;;;-141.90;44.13
5298;BME280;14738;42.668;23.250;2023-04-05T12:15:01;48541.19;;;-141.90;44.23
5298;BME280;14738;42.668;23.250;2023-04-05T12:17:59;48505.44;;;-141.90;44.62
5298;BME280;14738;42.668;23.250;2023-04-05T12:20:25;48481.63;;;-141.90;43.93
5298;BME280;14738;42.668;23.250;2023-04-05T12:22:53;48531.25;;;-141.90;43.97
5298;BME280;14738;42.668;23.250;2023-04-05T12:25:19;48513.38;;;-141.90;44.41
5298;BME280;14738;42.668;23.250;2023-04-05T12:27:44;48507.44;;;-141.90;44.94
5298;BME280;14738;42.668;23.250;2023-04-05T12:30:14;48507.44;;;-141.90;44.70
5298;BME280;14738;42.668;23.250;2023-04-05T12:32:41;48525.31;;;-141.90;45.23
5298;BME280;14738;42.668;23.250;2023-04-05T12:35:10;48509.41;;;-141.90;44.85
5298;BME280;14738;42.668;23.250;2023-04-05T12:37:37;48517.34;;;-141.90;45.72
5298;BME280;14738;42.668;23.250;2023-04-05T12:40:04;48525.31;;;-141.90;45.56
5298;BME280;14738;42.668;23.250;2023-04-05T12:42:38;48537.22;;;-141.90;45.31
5298;BME280;14738;42.668;23.250;2023-04-05T12:45:06;48533.25;;;-141.90;45.61
5298;BME280;14738;42.668;23.250;2023-04-05T12:47:34;48499.50;;;-141.90;45.71
5298;BME280;14738;42.668;23.250;2023-04-05T12:50:13;48545.16;;;-141.90;45.93
5298;BME280;14738;42.668;23.250;2023-04-05T12:52:53;48576.91;;;-141.90;47.03
5298;BME280;14738;42.668;23.250;2023-04-05T12:55:19;48507.44;;;-141.90;46.94
5298;BME280;14738;42.668;23.250;2023-04-05T12:57:54;48553.09;;;-141.90;46.42
5298;BME280;14738;42.668;23.250;2023-04-05T13:00:21;48547.13;;;-141.90;46.15
5298;BME280;14738;42.668;23.250;2023-04-05T13:02:50;48529.28;;;-141.90;46.17
5298;BME280;14738;42.668;23.250;2023-04-05T13:05:21;48525.31;;;-141.90;45.74
5298;BME280;14738;42.668;23.250;2023-04-05T13:07:46;48541.19;;;-141.90;45.97